Accueil
METAR-TAF:

METAR-TAF

Aéroports :

Ely Airport (Yelland Field)

Ely, Nevada, États-Unis

latitude: 39-17-42N, longitude: 114-50-43W, altitude: 1907 m

Observation

Le bulletin a été fait il y a 17 minutes, à 21:53 UTC
Vent 4 kt de direction variable
Température 26°C
Humidité 9%
Pression 1025 hPa
Visibilité: 16.1 km
Ciel clair

METAR: KELY 262153Z AUTO VRB04KT 10SM CLR 26/M09 A3028 RMK AO2 SLP175 T02611094 $

Heure: 15:10 (22:10 UTC)

Prévision

Le bulletin a été fait il y a 4 heures et 41 minutes, à 17:29 UTC
Prévision valable du 26 à 18 UTC au 27 à 18 UTC
Vent 6 kt de direction variable
Visibilité: 10 km
Ciel clair
A partir de 27 à 0200 UTC
Vent 10 kt de sud
Visibilité: 10 km
Ciel clair
A partir de 27 à 1400 UTC
Vent 6 kt de direction variable
Visibilité: 10 km
Ciel clair

TAF: KELY 261729Z 2618/2718 VRB06KT P6SM SKC FM270200 17010KT P6SM SKC FM271400 VRB06KT P6SM SKC

Observations et prévisions météorologiques de plus de 4000 aéroports (messages METAR et TAF).

Les stations disponibles sont représentées par des disques jaunes et rouges sur la carte.

Passer la souris dessus pour voir le nom de la station.

Cliquer dessus pour voir les observations et prévisions météorologiques.

Pour changer de carte: cliquez sur les boutons verts avec une croix noire pour zoomer, sur le bouton vert avec un tiret pour effectuer un zoom arrière, ou sur les flèches vertes pour les cartes adjacentes.


METAR-TAF: